createdAt,value
2019-05-06T02:00:23.710Z,7.87
2019-05-06T02:02:54.733Z,10.77
2019-05-06T02:05:24.568Z,7.93
2019-05-06T02:07:55.038Z,12.27
2019-05-06T02:10:24.328Z,7.30
2019-05-06T02:12:54.118Z,10.37
2019-05-06T02:15:23.887Z,8.97
2019-05-06T02:17:55.059Z,7.57
2019-05-06T02:20:24.644Z,9.70
2019-05-06T02:22:58.500Z,8.20
2019-05-06T02:25:29.272Z,9.00
2019-05-06T02:27:58.404Z,8.73
2019-05-06T02:30:29.176Z,8.33
2019-05-06T02:32:59.936Z,9.63
2019-05-06T02:35:34.467Z,10.50
2019-05-06T02:38:05.085Z,8.90
2019-05-06T02:40:34.298Z,7.57
2019-05-06T02:43:03.788Z,10.03
2019-05-06T02:45:33.678Z,10.37
2019-05-06T02:48:14.765Z,9.93
2019-05-06T02:50:45.591Z,9.73
2019-05-06T02:53:16.417Z,8.93
2019-05-06T02:55:45.555Z,12.20
2019-05-06T02:58:23.479Z,9.23
2019-05-06T03:00:53.716Z,10.00
2019-05-06T03:03:23.253Z,9.77
2019-05-06T03:05:53.446Z,11.27
2019-05-06T03:08:23.655Z,9.73
2019-05-06T03:10:53.600Z,10.27
2019-05-06T03:13:23.857Z,11.20
2019-05-06T03:15:54.380Z,10.00
2019-05-06T03:18:24.987Z,9.53
2019-05-06T03:20:58.902Z,7.63
2019-05-06T03:23:29.658Z,8.97
2019-05-06T03:25:59.126Z,10.20
2019-05-06T03:28:28.251Z,9.60
2019-05-06T03:30:57.401Z,8.67
2019-05-06T03:33:45.653Z,11.10
2019-05-06T03:36:13.600Z,11.83
2019-05-06T03:38:33.496Z,8.87
2019-05-06T03:41:03.084Z,10.33
2019-05-06T03:43:34.013Z,10.40
2019-05-06T03:46:06.741Z,12.17
2019-05-06T03:48:49.444Z,10.33
2019-05-06T03:51:18.872Z,7.50
2019-05-06T03:53:48.009Z,11.13
2019-05-06T03:56:19.874Z,9.27
2019-05-06T03:58:49.454Z,9.60
2019-05-06T04:01:18.597Z,9.23
2019-05-06T04:03:52.708Z,10.23
2019-05-06T04:06:18.561Z,7.40
2019-05-06T04:08:48.870Z,9.23
2019-05-06T04:11:18.501Z,7.57
2019-05-06T04:13:48.062Z,8.40
2019-05-06T04:16:23.024Z,9.13
2019-05-06T04:18:57.266Z,7.13
2019-05-06T04:21:33.751Z,8.13
2019-05-06T04:24:22.903Z,13.13
2019-05-06T04:27:06.471Z,9.73
2019-05-06T04:29:35.789Z,8.97
2019-05-06T04:32:05.048Z,11.53
2019-05-06T04:34:34.257Z,10.47
2019-05-06T04:37:04.528Z,11.03
2019-05-06T04:39:33.658Z,7.33
2019-05-06T04:42:08.645Z,10.10
2019-05-06T04:44:35.400Z,9.47
2019-05-06T04:47:05.367Z,7.27
2019-05-06T04:49:35.714Z,9.93
2019-05-06T04:52:05.224Z,10.57
2019-05-06T04:54:34.368Z,9.33
2019-05-06T04:57:05.095Z,9.97
2019-05-06T04:59:35.058Z,9.67
2019-05-06T05:02:05.144Z,9.20
2019-05-06T05:04:36.720Z,10.27
2019-05-06T05:07:05.200Z,8.07
2019-05-06T05:09:34.325Z,8.73
2019-05-06T05:12:17.264Z,10.43
2019-05-06T05:15:00.039Z,9.90
2019-05-06T05:17:46.637Z,12.27
2019-05-06T05:20:16.498Z,10.17
2019-05-06T05:22:45.638Z,9.00
2019-05-06T05:25:14.851Z,9.90
2019-05-06T05:27:43.972Z,10.77
2019-05-06T05:30:14.072Z,10.23
2019-05-06T05:32:43.214Z,10.13
2019-05-06T05:35:12.705Z,10.93
2019-05-06T05:37:42.123Z,16.30
2019-05-06T05:40:12.960Z,9.73
2019-05-06T05:42:43.918Z,10.53
2019-05-06T05:45:13.063Z,15.30
2019-05-06T05:47:42.554Z,10.80
2019-05-06T05:50:20.062Z,14.23
2019-05-06T05:53:02.490Z,9.23
2019-05-06T05:55:33.003Z,13.90
2019-05-06T05:58:03.123Z,13.30
2019-05-06T06:00:34.327Z,12.17
2019-05-06T06:03:07.095Z,17.50
2019-05-06T06:05:35.827Z,12.93
2019-05-06T06:08:05.000Z,16.90
2019-05-06T06:10:53.951Z,11.50
2019-05-06T06:13:23.113Z,13.23
2019-05-06T06:15:56.999Z,9.07
2019-05-06T06:18:27.757Z,10.70
2019-05-06T06:21:22.012Z,10.80
2019-05-06T06:23:50.352Z,9.60
2019-05-06T06:26:19.482Z,10.70
2019-05-06T06:28:48.621Z,15.63
2019-05-06T06:31:23.039Z,16.07
2019-05-06T06:33:54.005Z,10.17
2019-05-06T06:36:32.485Z,13.80
2019-05-06T06:39:03.430Z,12.70
2019-05-06T06:41:34.294Z,10.93
2019-05-06T06:44:05.447Z,9.53
2019-05-06T06:46:34.580Z,11.77
2019-05-06T06:49:05.490Z,11.77
2019-05-06T06:51:34.633Z,11.87
2019-05-06T06:54:04.598Z,11.23
2019-05-06T06:56:38.528Z,7.97
2019-05-06T06:59:12.858Z,10.37
2019-05-06T07:02:02.582Z,13.47
2019-05-06T07:04:35.489Z,12.70
2019-05-06T07:07:05.007Z,13.87
2019-05-06T07:09:34.120Z,12.47
2019-05-06T07:12:03.526Z,13.17
2019-05-06T07:14:35.843Z,10.10
2019-05-06T07:17:03.709Z,13.03
2019-05-06T07:19:38.406Z,13.10
2019-05-06T07:22:07.542Z,10.83
2019-05-06T07:24:37.024Z,11.07
2019-05-06T07:27:12.547Z,9.97
2019-05-06T07:29:48.326Z,12.53
2019-05-06T07:32:12.397Z,10.40
2019-05-06T07:34:42.025Z,9.07
2019-05-06T07:37:12.582Z,9.87
2019-05-06T07:39:43.059Z,14.20
2019-05-06T07:42:14.034Z,8.80
2019-05-06T07:44:47.885Z,11.87
2019-05-06T07:47:23.788Z,10.03
2019-05-06T07:49:53.231Z,9.23
2019-05-06T07:52:23.030Z,9.07
2019-05-06T07:54:53.350Z,12.63
2019-05-06T07:57:22.729Z,12.10
2019-05-06T07:59:52.527Z,9.13
2019-05-06T08:02:22.865Z,10.63
2019-05-06T08:04:53.127Z,11.40
2019-05-06T08:07:22.897Z,9.53
2019-05-06T08:09:53.054Z,10.23
2019-05-06T08:12:23.137Z,10.43
2019-05-06T08:14:52.617Z,8.53
2019-05-06T08:17:23.402Z,7.37
2019-05-06T08:19:53.043Z,9.53
2019-05-06T08:22:42.298Z,7.80
2019-05-06T08:25:12.187Z,9.10
2019-05-06T08:27:42.734Z,12.50
2019-05-06T08:30:13.196Z,8.53
2019-05-06T08:32:42.607Z,7.73
2019-05-06T08:35:13.350Z,7.40
2019-05-06T08:37:45.226Z,8.47
2019-05-06T08:40:14.545Z,7.30
2019-05-06T08:42:43.699Z,7.47
2019-05-06T08:45:12.984Z,9.03
2019-05-06T08:47:42.687Z,8.20
2019-05-06T08:50:22.718Z,9.90
2019-05-06T08:52:56.169Z,7.93
2019-05-06T08:55:27.009Z,7.50
2019-05-06T08:57:56.131Z,7.83
2019-05-06T09:00:25.267Z,10.33
2019-05-06T09:02:54.406Z,8.53
2019-05-06T09:05:23.833Z,8.67
2019-05-06T09:07:52.979Z,6.90
2019-05-06T09:10:22.741Z,10.83
2019-05-06T09:12:52.524Z,9.10
2019-05-06T09:15:22.041Z,6.57
2019-05-06T09:17:52.630Z,7.53
2019-05-06T09:20:23.415Z,8.83
2019-05-06T09:22:52.792Z,9.13
2019-05-06T09:25:23.138Z,7.20
2019-05-06T09:27:54.120Z,9.73
2019-05-06T09:30:40.045Z,6.30
2019-05-06T09:33:10.338Z,8.07
2019-05-06T09:35:39.476Z,8.03
2019-05-06T09:38:08.704Z,7.23
2019-05-06T09:40:37.828Z,8.07
2019-05-06T09:43:06.948Z,6.00
2019-05-06T09:45:36.097Z,7.27
2019-05-06T09:48:07.028Z,6.77
2019-05-06T09:50:39.389Z,5.40
2019-05-06T09:53:12.943Z,6.37
2019-05-06T09:55:45.761Z,8.93
2019-05-06T09:58:14.919Z,3.47
2019-05-06T10:00:48.342Z,4.17
2019-05-06T10:03:17.805Z,4.57
2019-05-06T10:05:46.953Z,6.63
2019-05-06T10:08:17.046Z,5.97
2019-05-06T10:10:56.029Z,8.43
2019-05-06T10:13:17.009Z,4.93
2019-05-06T10:15:46.146Z,5.37
2019-05-06T10:18:15.277Z,5.03
2019-05-06T10:20:46.352Z,4.73
2019-05-06T10:23:15.492Z,4.77
2019-05-06T10:25:44.628Z,5.33
2019-05-06T10:28:18.617Z,5.63
2019-05-06T10:30:47.750Z,5.53
2019-05-06T10:33:32.385Z,4.70
2019-05-06T10:36:04.924Z,4.47
2019-05-06T10:38:55.462Z,6.67
2019-05-06T10:41:32.952Z,4.87
2019-05-06T10:44:11.942Z,4.50
2019-05-06T10:46:43.009Z,5.27
2019-05-06T10:49:13.189Z,6.40
2019-05-06T10:52:02.113Z,2.40
2019-05-06T10:54:31.870Z,3.40
2019-05-06T10:57:15.002Z,2.43
2019-05-06T10:59:44.136Z,5.00
2019-05-06T11:02:17.622Z,3.27
2019-05-06T11:04:46.769Z,3.53
2019-05-06T11:07:27.586Z,3.67
2019-05-06T11:09:46.752Z,5.30
2019-05-06T11:12:15.880Z,4.23
2019-05-06T11:14:45.021Z,3.37
2019-05-06T11:17:14.153Z,4.73
2019-05-06T11:19:43.297Z,2.83
2019-05-06T11:22:12.950Z,5.97
2019-05-06T11:24:42.285Z,5.47
2019-05-06T11:27:25.204Z,3.87
2019-05-06T11:29:53.003Z,3.60
2019-05-06T11:32:27.101Z,6.17
2019-05-06T11:35:03.982Z,4.23
2019-05-06T11:37:47.206Z,4.03
2019-05-06T11:40:09.608Z,4.30
2019-05-06T11:42:38.729Z,3.70
2019-05-06T11:45:07.860Z,4.47
2019-05-06T11:47:37.004Z,3.00
2019-05-06T11:50:08.277Z,6.37
2019-05-06T11:52:37.411Z,4.07
2019-05-06T11:55:07.416Z,3.63
2019-05-06T11:57:38.191Z,3.47
2019-05-06T12:00:09.040Z,4.03
2019-05-06T12:02:41.127Z,4.93
2019-05-06T12:05:09.084Z,4.63
2019-05-06T12:07:38.224Z,6.97
2019-05-06T12:10:09.354Z,3.63
2019-05-06T12:12:38.503Z,5.10
2019-05-06T12:15:07.917Z,5.60
2019-05-06T12:17:37.045Z,4.10
2019-05-06T12:20:06.456Z,5.50
2019-05-06T12:22:35.584Z,4.87
2019-05-06T12:25:11.702Z,6.87
2019-05-06T12:27:45.605Z,5.08
2019-05-06T12:30:18.022Z,5.57
2019-05-06T12:33:04.757Z,7.07
2019-05-06T12:35:35.811Z,4.90
2019-05-06T12:38:23.897Z,8.47
2019-05-06T12:40:38.493Z,7.67
2019-05-06T12:43:25.011Z,4.97
2019-05-06T12:46:05.434Z,5.50
2019-05-06T12:48:45.463Z,5.33
2019-05-06T12:51:14.666Z,6.07
2019-05-06T12:53:43.786Z,8.37
2019-05-06T12:56:12.936Z,5.55
2019-05-06T12:58:44.279Z,3.73
2019-05-06T13:01:13.857Z,6.53
2019-05-06T13:03:43.376Z,5.27
2019-05-06T13:06:13.068Z,5.73
2019-05-06T13:08:57.263Z,5.83
2019-05-06T13:11:13.337Z,5.20
2019-05-06T13:13:56.760Z,5.27
2019-05-06T13:16:13.576Z,5.53
2019-05-06T13:18:47.632Z,3.77
2019-05-06T13:21:13.665Z,5.20
2019-05-06T13:23:44.445Z,4.73
2019-05-06T13:26:13.590Z,4.07
2019-05-06T13:28:44.433Z,6.00
2019-05-06T13:31:20.991Z,4.60
2019-05-06T13:33:55.316Z,4.23
2019-05-06T13:36:25.905Z,5.13
2019-05-06T13:39:09.535Z,4.37
2019-05-06T13:41:25.874Z,4.67
2019-05-06T13:43:56.637Z,5.30
2019-05-06T13:46:27.440Z,5.23
2019-05-06T13:49:02.760Z,8.13
2019-05-06T13:51:33.409Z,6.57
2019-05-06T13:54:03.340Z,6.80
2019-05-06T13:56:33.531Z,6.30
2019-05-06T13:59:05.036Z,5.47
2019-05-06T14:01:43.863Z,5.37
2019-05-06T14:04:14.762Z,8.93
2019-05-06T14:06:43.882Z,4.53
2019-05-06T14:09:28.411Z,6.60
2019-05-06T14:11:44.489Z,5.60
2019-05-06T14:14:13.628Z,6.20
2019-05-06T14:16:42.927Z,5.27
2019-05-06T14:19:13.209Z,5.50
2019-05-06T14:21:43.359Z,4.33
2019-05-06T14:24:13.412Z,8.40
2019-05-06T14:26:47.547Z,6.60
2019-05-06T14:29:18.338Z,5.77
2019-05-06T14:31:52.319Z,4.87
2019-05-06T14:34:23.004Z,7.80
2019-05-06T14:36:53.351Z,5.83
2019-05-06T14:39:44.730Z,5.90
2019-05-06T14:42:02.279Z,4.90
2019-05-06T14:44:32.806Z,4.97
2019-05-06T14:47:08.232Z,3.70
2019-05-06T14:49:37.929Z,5.50
2019-05-06T14:52:07.073Z,6.77
2019-05-06T14:54:37.840Z,9.27
2019-05-06T14:57:12.156Z,6.30
2019-05-06T14:59:42.469Z,6.90
2019-05-06T15:02:13.242Z,4.67
2019-05-06T15:04:43.479Z,5.70
2019-05-06T15:07:12.952Z,4.30
2019-05-06T15:09:55.692Z,8.40
2019-05-06T15:12:13.376Z,5.77
2019-05-06T15:14:42.725Z,4.97
2019-05-06T15:17:14.205Z,4.87
2019-05-06T15:19:43.013Z,4.87
2019-05-06T15:22:13.010Z,4.93
2019-05-06T15:24:42.754Z,5.37
2019-05-06T15:27:13.016Z,4.97
2019-05-06T15:29:43.808Z,4.63
2019-05-06T15:32:22.186Z,6.37
2019-05-06T15:34:56.364Z,5.73
2019-05-06T15:37:33.837Z,5.30
2019-05-06T15:40:03.260Z,4.17
2019-05-06T15:42:34.216Z,5.30
2019-05-06T15:45:07.494Z,4.67
2019-05-06T15:47:36.628Z,5.77
2019-05-06T15:50:05.757Z,4.03
2019-05-06T15:52:34.888Z,5.40
2019-05-06T15:55:06.720Z,4.73
2019-05-06T15:57:35.860Z,5.67
2019-05-06T16:00:05.983Z,4.03
2019-05-06T16:02:35.130Z,2.77
2019-05-06T16:05:06.629Z,3.30
2019-05-06T16:07:37.304Z,4.40
2019-05-06T16:10:07.620Z,4.37
2019-05-06T16:12:36.767Z,3.80
2019-05-06T16:15:07.150Z,4.57
2019-05-06T16:17:36.338Z,5.03
2019-05-06T16:20:06.044Z,6.07
2019-05-06T16:22:35.168Z,5.23
2019-05-06T16:25:08.398Z,4.57
2019-05-06T16:27:37.521Z,5.27
2019-05-06T16:30:08.373Z,4.73
2019-05-06T16:32:37.509Z,5.17
2019-05-06T16:35:06.848Z,5.87
2019-05-06T16:37:36.002Z,4.27
2019-05-06T16:40:05.877Z,3.93
2019-05-06T16:42:35.001Z,5.13
2019-05-06T16:45:07.113Z,5.60
2019-05-06T16:47:36.789Z,4.20
2019-05-06T16:50:13.250Z,4.90
2019-05-06T16:52:44.877Z,6.63
2019-05-06T16:55:16.004Z,5.77
2019-05-06T16:57:46.769Z,4.37
2019-05-06T17:00:17.549Z,4.37
2019-05-06T17:03:00.108Z,5.30
2019-05-06T17:05:35.797Z,5.20
2019-05-06T17:08:04.965Z,4.97
2019-05-06T17:10:34.097Z,5.60
2019-05-06T17:13:04.536Z,6.90
2019-05-06T17:15:33.972Z,5.17
2019-05-06T17:18:04.997Z,7.87
2019-05-06T17:20:34.149Z,7.67
2019-05-06T17:23:04.113Z,5.23
2019-05-06T17:25:33.939Z,5.87
2019-05-06T17:28:14.711Z,5.50
2019-05-06T17:30:51.016Z,8.50
2019-05-06T17:33:34.053Z,3.00
2019-05-06T17:36:03.648Z,3.80
2019-05-06T17:38:37.337Z,4.57
2019-05-06T17:41:06.465Z,4.47
2019-05-06T17:43:40.522Z,4.87
2019-05-06T17:46:06.891Z,3.83
2019-05-06T17:48:37.773Z,6.13
2019-05-06T17:51:17.872Z,4.70
2019-05-06T17:53:48.658Z,6.90
2019-05-06T17:56:17.864Z,4.70
2019-05-06T17:58:46.988Z,7.20
2019-05-06T18:01:17.882Z,4.47
2019-05-06T18:03:47.974Z,7.43
2019-05-06T18:06:17.116Z,5.37
2019-05-06T18:08:46.274Z,4.60
2019-05-06T18:11:15.464Z,5.27
2019-05-06T18:13:44.612Z,6.10
2019-05-06T18:16:13.742Z,6.50
2019-05-06T18:18:42.881Z,5.07
2019-05-06T18:21:13.092Z,6.60
2019-05-06T18:23:42.237Z,6.60
2019-05-06T18:26:11.381Z,5.47
2019-05-06T18:28:42.903Z,5.40
2019-05-06T18:31:12.510Z,5.37
2019-05-06T18:33:43.151Z,5.27
2019-05-06T18:36:12.962Z,7.27
2019-05-06T18:38:42.310Z,4.67
2019-05-06T18:41:12.092Z,4.17
2019-05-06T18:43:42.276Z,3.57
2019-05-06T18:46:12.291Z,4.30
2019-05-06T18:48:42.808Z,7.80
2019-05-06T18:51:12.640Z,12.20
2019-05-06T18:53:42.904Z,4.30
2019-05-06T18:56:12.714Z,4.53
2019-05-06T18:58:42.921Z,6.67
2019-05-06T19:01:13.553Z,8.43
2019-05-06T19:03:50.034Z,9.53
2019-05-06T19:06:19.177Z,6.47
2019-05-06T19:09:02.554Z,7.30
2019-05-06T19:11:33.535Z,7.20
2019-05-06T19:14:04.357Z,6.57
2019-05-06T19:16:47.846Z,7.03
2019-05-06T19:19:06.037Z,8.33
2019-05-06T19:21:35.285Z,5.60
2019-05-06T19:24:04.400Z,6.37
2019-05-06T19:26:33.536Z,7.97
2019-05-06T19:29:04.557Z,6.60
2019-05-06T19:31:33.511Z,5.90
2019-05-06T19:34:03.286Z,8.27
2019-05-06T19:36:34.851Z,8.90
2019-05-06T19:39:05.868Z,7.87
2019-05-06T19:41:35.861Z,6.60
2019-05-06T19:44:05.031Z,7.40
2019-05-06T19:46:34.200Z,7.97
2019-05-06T19:49:03.348Z,9.80
2019-05-06T19:51:32.995Z,10.13
2019-05-06T19:54:04.053Z,5.43
2019-05-06T19:56:33.180Z,10.30
2019-05-06T19:59:03.384Z,8.87
2019-05-06T20:01:33.491Z,7.13
2019-05-06T20:04:02.723Z,7.00
2019-05-06T20:06:39.548Z,6.27
2019-05-06T20:09:28.603Z,7.30
2019-05-06T20:12:17.951Z,5.67
2019-05-06T20:14:47.097Z,6.27
2019-05-06T20:17:16.245Z,7.03
2019-05-06T20:19:45.395Z,21.47
2019-05-06T20:22:14.554Z,26.93
2019-05-06T20:24:43.705Z,20.03
2019-05-06T20:27:13.384Z,18.73
2019-05-06T20:29:42.947Z,20.13
2019-05-06T20:32:12.313Z,21.67
2019-05-06T20:34:42.870Z,25.43
2019-05-06T20:37:12.835Z,30.13
2019-05-06T20:39:43.312Z,23.00
2019-05-06T20:42:12.914Z,14.33
2019-05-06T20:44:43.330Z,14.40
2019-05-06T20:47:13.204Z,24.40
2019-05-06T20:49:43.147Z,16.07
2019-05-06T20:52:12.488Z,13.07
2019-05-06T20:54:42.846Z,10.27
2019-05-06T20:57:12.395Z,13.03
2019-05-06T20:59:42.764Z,12.43
2019-05-06T21:02:12.576Z,21.93
2019-05-06T21:04:43.145Z,18.37
2019-05-06T21:07:13.225Z,13.20
2019-05-06T21:09:43.252Z,10.83
2019-05-06T21:12:13.247Z,11.13
2019-05-06T21:14:42.388Z,8.73
2019-05-06T21:17:12.349Z,7.50
2019-05-06T21:19:43.575Z,8.00
2019-05-06T21:22:13.280Z,11.30
2019-05-06T21:24:43.136Z,9.60
2019-05-06T21:27:12.676Z,8.10
2019-05-06T21:29:42.116Z,7.27
2019-05-06T21:32:11.693Z,8.53
2019-05-06T21:34:43.237Z,7.73
2019-05-06T21:37:12.610Z,10.87
2019-05-06T21:39:42.378Z,11.00
2019-05-06T21:42:13.848Z,9.77
2019-05-06T21:44:43.057Z,7.87
2019-05-06T21:47:12.184Z,10.33
2019-05-06T21:49:42.175Z,13.50
2019-05-06T21:52:13.117Z,8.23
2019-05-06T21:54:43.438Z,7.97
2019-05-06T21:57:12.768Z,7.37
2019-05-06T21:59:42.746Z,8.43
2019-05-06T22:02:15.082Z,6.80
2019-05-06T22:04:44.230Z,7.73
2019-05-06T22:07:13.684Z,8.30
2019-05-06T22:09:43.100Z,7.10
2019-05-06T22:12:12.409Z,9.87
2019-05-06T22:14:42.273Z,8.23
